sensor_id;sensor_type;location;lat;lon;timestamp;temperature;humidity
16736;DHT22;17990;49.548;9.730;2023-08-31T00:00:54;14.30;99.90
16736;DHT22;17990;49.548;9.730;2023-08-31T00:03:21;14.30;99.90
16736;DHT22;17990;49.548;9.730;2023-08-31T00:05:47;14.40;99.90
16736;DHT22;17990;49.548;9.730;2023-08-31T00:08:16;14.40;99.90
16736;DHT22;17990;49.548;9.730;2023-08-31T00:10:43;14.40;99.90
16736;DHT22;17990;49.548;9.730;2023-08-31T00:13:11;14.40;99.90
16736;DHT22;17990;49.548;9.730;2023-08-31T00:15:38;14.40;99.90
16736;DHT22;17990;49.548;9.730;2023-08-31T00:18:06;14.40;99.90
16736;DHT22;17990;49.548;9.730;2023-08-31T00:20:33;14.40;99.90
16736;DHT22;17990;49.548;9.730;2023-08-31T00:23:00;14.30;99.90
16736;DHT22;17990;49.548;9.730;2023-08-31T00:25:27;14.20;99.90
16736;DHT22;17990;49.548;9.730;2023-08-31T00:27:54;14.20;99.90
16736;DHT22;17990;49.548;9.730;2023-08-31T00:30:23;14.10;99.90
16736;DHT22;17990;49.548;9.730;2023-08-31T00:32:55;14.10;99.90
16736;DHT22;17990;49.548;9.730;2023-08-31T00:35:25;14.10;99.90
16736;DHT22;17990;49.548;9.730;2023-08-31T00:37:52;14.10;99.90
16736;DHT22;17990;49.548;9.730;2023-08-31T00:40:23;14.10;99.90
16736;DHT22;17990;49.548;9.730;2023-08-31T00:42:50;14.10;99.90
16736;DHT22;17990;49.548;9.730;2023-08-31T00:45:17;14.00;99.90
16736;DHT22;17990;49.548;9.730;2023-08-31T00:47:45;14.00;99.90
16736;DHT22;17990;49.548;9.730;2023-08-31T00:50:15;14.00;99.90
16736;DHT22;17990;49.548;9.730;2023-08-31T00:52:42;14.00;99.90
16736;DHT22;17990;49.548;9.730;2023-08-31T00:55:10;14.00;99.90
16736;DHT22;17990;49.548;9.730;2023-08-31T00:57:36;13.90;99.90
16736;DHT22;17990;49.548;9.730;2023-08-31T01:00:04;13.90;99.90
16736;DHT22;17990;49.548;9.730;2023-08-31T01:02:39;13.80;99.90
16736;DHT22;17990;49.548;9.730;2023-08-31T01:05:15;13.80;99.90
16736;DHT22;17990;49.548;9.730;2023-08-31T01:07:55;13.70;99.90
16736;DHT22;17990;49.548;9.730;2023-08-31T01:10:28;13.70;99.90
16736;DHT22;17990;49.548;9.730;2023-08-31T01:13:00;13.60;99.90
16736;DHT22;17990;49.548;9.730;2023-08-31T01:15:30;13.60;99.90
16736;DHT22;17990;49.548;9.730;2023-08-31T01:17:58;13.60;99.90
16736;DHT22;17990;49.548;9.730;2023-08-31T01:20:32;13.60;99.90
16736;DHT22;17990;49.548;9.730;2023-08-31T01:23:02;13.60;99.90
16736;DHT22;17990;49.548;9.730;2023-08-31T01:25:32;13.60;99.90
16736;DHT22;17990;49.548;9.730;2023-08-31T01:28:01;13.50;99.90
16736;DHT22;17990;49.548;9.730;2023-08-31T01:30:30;13.50;99.90
16736;DHT22;17990;49.548;9.730;2023-08-31T01:32:57;13.40;99.90
16736;DHT22;17990;49.548;9.730;2023-08-31T01:35:25;13.40;99.90
16736;DHT22;17990;49.548;9.730;2023-08-31T01:37:55;13.40;99.90
16736;DHT22;17990;49.548;9.730;2023-08-31T01:40:27;13.40;99.90
16736;DHT22;17990;49.548;9.730;2023-08-31T01:43:01;13.30;99.90
16736;DHT22;17990;49.548;9.730;2023-08-31T01:45:29;13.30;99.90
16736;DHT22;17990;49.548;9.730;2023-08-31T01:47:57;13.40;99.90
16736;DHT22;17990;49.548;9.730;2023-08-31T01:50:24;13.40;99.90
16736;DHT22;17990;49.548;9.730;2023-08-31T01:52:51;13.30;99.90
16736;DHT22;17990;49.548;9.730;2023-08-31T01:55:18;13.30;99.90
16736;DHT22;17990;49.548;9.730;2023-08-31T01:57:47;13.40;99.90
16736;DHT22;17990;49.548;9.730;2023-08-31T02:00:17;13.40;99.90
16736;DHT22;17990;49.548;9.730;2023-08-31T02:02:44;13.30;99.90
16736;DHT22;17990;49.548;9.730;2023-08-31T02:05:10;13.30;99.90
16736;DHT22;17990;49.548;9.730;2023-08-31T02:07:37;13.20;99.90
16736;DHT22;17990;49.548;9.730;2023-08-31T02:10:06;13.20;99.90
16736;DHT22;17990;49.548;9.730;2023-08-31T02:12:33;13.10;99.90
16736;DHT22;17990;49.548;9.730;2023-08-31T02:15:01;13.10;99.90
16736;DHT22;17990;49.548;9.730;2023-08-31T02:17:30;13.10;99.90
16736;DHT22;17990;49.548;9.730;2023-08-31T02:19:57;13.00;99.90
16736;DHT22;17990;49.548;9.730;2023-08-31T02:22:25;13.00;99.90
16736;DHT22;17990;49.548;9.730;2023-08-31T02:24:52;12.90;99.90
16736;DHT22;17990;49.548;9.730;2023-08-31T02:27:19;13.00;99.90
16736;DHT22;17990;49.548;9.730;2023-08-31T02:29:45;12.90;99.90
16736;DHT22;17990;49.548;9.730;2023-08-31T02:32:12;12.90;99.90
16736;DHT22;17990;49.548;9.730;2023-08-31T02:34:40;12.90;99.90
16736;DHT22;17990;49.548;9.730;2023-08-31T02:37:07;12.90;99.90
16736;DHT22;17990;49.548;9.730;2023-08-31T02:39:34;13.00;99.90
16736;DHT22;17990;49.548;9.730;2023-08-31T02:42:00;13.00;99.90
16736;DHT22;17990;49.548;9.730;2023-08-31T02:44:27;12.90;99.90
16736;DHT22;17990;49.548;9.730;2023-08-31T02:46:54;12.90;99.90
16736;DHT22;17990;49.548;9.730;2023-08-31T02:49:21;12.90;99.90
16736;DHT22;17990;49.548;9.730;2023-08-31T02:51:49;12.90;99.90
16736;DHT22;17990;49.548;9.730;2023-08-31T02:54:16;12.90;99.90
16736;DHT22;17990;49.548;9.730;2023-08-31T02:56:44;12.90;99.90
16736;DHT22;17990;49.548;9.730;2023-08-31T02:59:11;12.90;99.90
16736;DHT22;17990;49.548;9.730;2023-08-31T03:01:38;12.90;99.90
16736;DHT22;17990;49.548;9.730;2023-08-31T03:04:06;12.90;99.90
16736;DHT22;17990;49.548;9.730;2023-08-31T03:06:32;12.80;99.90
16736;DHT22;17990;49.548;9.730;2023-08-31T03:09:01;12.90;99.90
16736;DHT22;17990;49.548;9.730;2023-08-31T03:11:28;12.80;99.90
16736;DHT22;17990;49.548;9.730;2023-08-31T03:13:56;12.80;99.90
16736;DHT22;17990;49.548;9.730;2023-08-31T03:16:23;12.80;99.90
16736;DHT22;17990;49.548;9.730;2023-08-31T03:18:49;12.80;99.90
16736;DHT22;17990;49.548;9.730;2023-08-31T03:21:16;12.80;99.90
16736;DHT22;17990;49.548;9.730;2023-08-31T03:23:43;12.80;99.90
16736;DHT22;17990;49.548;9.730;2023-08-31T03:26:11;12.80;99.90
16736;DHT22;17990;49.548;9.730;2023-08-31T03:28:38;12.80;99.90
16736;DHT22;17990;49.548;9.730;2023-08-31T03:31:06;12.80;99.90
16736;DHT22;17990;49.548;9.730;2023-08-31T03:33:33;12.90;99.90
16736;DHT22;17990;49.548;9.730;2023-08-31T03:36:00;12.90;99.90
16736;DHT22;17990;49.548;9.730;2023-08-31T03:38:29;13.00;99.90
16736;DHT22;17990;49.548;9.730;2023-08-31T03:40:56;13.00;99.90
16736;DHT22;17990;49.548;9.730;2023-08-31T03:43:24;13.00;99.90
16736;DHT22;17990;49.548;9.730;2023-08-31T03:45:54;13.10;99.90
16736;DHT22;17990;49.548;9.730;2023-08-31T03:48:22;13.10;99.90
16736;DHT22;17990;49.548;9.730;2023-08-31T03:50:49;13.10;99.90
16736;DHT22;17990;49.548;9.730;2023-08-31T03:53:16;13.00;99.90
16736;DHT22;17990;49.548;9.730;2023-08-31T03:55:43;12.80;99.90
16736;DHT22;17990;49.548;9.730;2023-08-31T03:58:10;12.90;99.90
16736;DHT22;17990;49.548;9.730;2023-08-31T04:00:38;12.90;99.90
16736;DHT22;17990;49.548;9.730;2023-08-31T04:03:05;12.80;99.90
16736;DHT22;17990;49.548;9.730;2023-08-31T04:05:32;12.80;99.90
16736;DHT22;17990;49.548;9.730;2023-08-31T04:07:59;12.60;99.90
16736;DHT22;17990;49.548;9.730;2023-08-31T04:10:26;12.50;99.90
16736;DHT22;17990;49.548;9.730;2023-08-31T04:12:55;12.30;99.90
16736;DHT22;17990;49.548;9.730;2023-08-31T04:15:21;12.30;99.90
16736;DHT22;17990;49.548;9.730;2023-08-31T04:17:49;12.20;99.90
16736;DHT22;17990;49.548;9.730;2023-08-31T04:20:17;12.20;99.90
16736;DHT22;17990;49.548;9.730;2023-08-31T04:22:44;12.30;99.90
16736;DHT22;17990;49.548;9.730;2023-08-31T04:25:10;12.30;99.90
16736;DHT22;17990;49.548;9.730;2023-08-31T04:27:37;12.30;99.90
16736;DHT22;17990;49.548;9.730;2023-08-31T04:30:06;12.20;99.90
16736;DHT22;17990;49.548;9.730;2023-08-31T04:32:33;12.20;99.90
16736;DHT22;17990;49.548;9.730;2023-08-31T04:35:02;12.20;99.90
16736;DHT22;17990;49.548;9.730;2023-08-31T04:37:30;12.20;99.90
16736;DHT22;17990;49.548;9.730;2023-08-31T04:39:57;12.20;99.90
16736;DHT22;17990;49.548;9.730;2023-08-31T04:42:24;12.30;99.90
16736;DHT22;17990;49.548;9.730;2023-08-31T04:44:51;12.20;99.90
16736;DHT22;17990;49.548;9.730;2023-08-31T04:47:18;12.20;99.90
16736;DHT22;17990;49.548;9.730;2023-08-31T04:49:44;12.20;99.90
16736;DHT22;17990;49.548;9.730;2023-08-31T04:52:13;12.20;99.90
16736;DHT22;17990;49.548;9.730;2023-08-31T04:54:39;12.20;99.90
16736;DHT22;17990;49.548;9.730;2023-08-31T04:57:06;12.20;99.90
16736;DHT22;17990;49.548;9.730;2023-08-31T04:59:33;12.30;99.90
16736;DHT22;17990;49.548;9.730;2023-08-31T05:02:00;12.30;99.90
16736;DHT22;17990;49.548;9.730;2023-08-31T05:04:27;12.30;99.90
16736;DHT22;17990;49.548;9.730;2023-08-31T05:06:54;12.40;99.90
16736;DHT22;17990;49.548;9.730;2023-08-31T05:09:23;12.40;99.90
16736;DHT22;17990;49.548;9.730;2023-08-31T05:11:50;12.50;99.90
16736;DHT22;17990;49.548;9.730;2023-08-31T05:14:17;12.60;99.90
16736;DHT22;17990;49.548;9.730;2023-08-31T05:16:45;12.60;99.90
16736;DHT22;17990;49.548;9.730;2023-08-31T05:19:12;12.70;99.90
16736;DHT22;17990;49.548;9.730;2023-08-31T05:21:39;12.70;99.90
16736;DHT22;17990;49.548;9.730;2023-08-31T05:24:06;12.70;99.90
16736;DHT22;17990;49.548;9.730;2023-08-31T05:26:34;12.70;99.90
16736;DHT22;17990;49.548;9.730;2023-08-31T05:29:01;12.70;99.90
16736;DHT22;17990;49.548;9.730;2023-08-31T05:31:30;12.80;99.90
16736;DHT22;17990;49.548;9.730;2023-08-31T05:33:57;12.80;99.90
16736;DHT22;17990;49.548;9.730;2023-08-31T05:36:24;12.80;99.90
16736;DHT22;17990;49.548;9.730;2023-08-31T05:38:51;12.90;99.90
16736;DHT22;17990;49.548;9.730;2023-08-31T05:41:18;13.00;99.90
16736;DHT22;17990;49.548;9.730;2023-08-31T05:43:46;13.00;99.90
16736;DHT22;17990;49.548;9.730;2023-08-31T05:46:13;13.10;99.90
16736;DHT22;17990;49.548;9.730;2023-08-31T05:48:40;13.10;99.90
16736;DHT22;17990;49.548;9.730;2023-08-31T05:51:06;13.20;99.90
16736;DHT22;17990;49.548;9.730;2023-08-31T05:53:33;13.40;99.90
16736;DHT22;17990;49.548;9.730;2023-08-31T05:56:00;13.60;99.90
16736;DHT22;17990;49.548;9.730;2023-08-31T05:58:30;14.20;99.90
16736;DHT22;17990;49.548;9.730;2023-08-31T06:00:59;14.50;99.90
16736;DHT22;17990;49.548;9.730;2023-08-31T06:03:26;15.10;99.90
16736;DHT22;17990;49.548;9.730;2023-08-31T06:05:53;15.70;99.90
16736;DHT22;17990;49.548;9.730;2023-08-31T06:08:20;17.90;99.90
16736;DHT22;17990;49.548;9.730;2023-08-31T06:10:47;21.10;99.90
16736;DHT22;17990;49.548;9.730;2023-08-31T06:13:14;22.10;99.90
16736;DHT22;17990;49.548;9.730;2023-08-31T06:15:41;23.40;99.90
16736;DHT22;17990;49.548;9.730;2023-08-31T06:18:09;24.20;99.90
16736;DHT22;17990;49.548;9.730;2023-08-31T06:20:35;24.80;99.90
16736;DHT22;17990;49.548;9.730;2023-08-31T06:23:02;24.40;99.90
16736;DHT22;17990;49.548;9.730;2023-08-31T06:25:29;23.00;99.90
16736;DHT22;17990;49.548;9.730;2023-08-31T06:27:57;22.80;99.90
16736;DHT22;17990;49.548;9.730;2023-08-31T06:30:24;22.80;99.90
16736;DHT22;17990;49.548;9.730;2023-08-31T06:32:51;23.10;99.90
16736;DHT22;17990;49.548;9.730;2023-08-31T06:35:19;22.50;99.90
16736;DHT22;17990;49.548;9.730;2023-08-31T06:37:46;22.80;99.90
16736;DHT22;17990;49.548;9.730;2023-08-31T06:40:13;24.10;99.90
16736;DHT22;17990;49.548;9.730;2023-08-31T06:42:40;25.10;99.90
16736;DHT22;17990;49.548;9.730;2023-08-31T06:45:08;26.60;99.90
16736;DHT22;17990;49.548;9.730;2023-08-31T06:47:35;27.40;99.90
16736;DHT22;17990;49.548;9.730;2023-08-31T06:50:02;27.60;99.90
16736;DHT22;17990;49.548;9.730;2023-08-31T06:52:30;28.10;99.90
16736;DHT22;17990;49.548;9.730;2023-08-31T06:54:57;29.20;98.20
16736;DHT22;17990;49.548;9.730;2023-08-31T06:57:24;29.80;96.30
16736;DHT22;17990;49.548;9.730;2023-08-31T06:59:52;30.00;94.90
16736;DHT22;17990;49.548;9.730;2023-08-31T07:02:18;29.90;93.80
16736;DHT22;17990;49.548;9.730;2023-08-31T07:04:47;29.60;93.70
16736;DHT22;17990;49.548;9.730;2023-08-31T07:07:15;29.60;93.10
16736;DHT22;17990;49.548;9.730;2023-08-31T07:09:44;30.10;92.30
16736;DHT22;17990;49.548;9.730;2023-08-31T07:12:10;30.70;91.00
16736;DHT22;17990;49.548;9.730;2023-08-31T07:14:38;31.10;90.20
16736;DHT22;17990;49.548;9.730;2023-08-31T07:17:04;31.00;88.10
16736;DHT22;17990;49.548;9.730;2023-08-31T07:19:31;31.60;86.60
16736;DHT22;17990;49.548;9.730;2023-08-31T07:22:01;30.70;86.20
16736;DHT22;17990;49.548;9.730;2023-08-31T07:24:29;31.10;85.70
16736;DHT22;17990;49.548;9.730;2023-08-31T07:26:57;31.50;84.50
16736;DHT22;17990;49.548;9.730;2023-08-31T07:29:24;31.70;82.70
16736;DHT22;17990;49.548;9.730;2023-08-31T07:31:51;31.40;82.90
16736;DHT22;17990;49.548;9.730;2023-08-31T07:34:18;31.20;82.60
16736;DHT22;17990;49.548;9.730;2023-08-31T07:36:44;30.90;82.60
16736;DHT22;17990;49.548;9.730;2023-08-31T07:39:12;31.40;81.80
16736;DHT22;17990;49.548;9.730;2023-08-31T07:41:39;32.10;80.50
16736;DHT22;17990;49.548;9.730;2023-08-31T07:44:07;32.50;79.00
16736;DHT22;17990;49.548;9.730;2023-08-31T07:46:33;32.10;78.80
16736;DHT22;17990;49.548;9.730;2023-08-31T07:49:00;32.00;77.70
16736;DHT22;17990;49.548;9.730;2023-08-31T07:51:28;31.50;78.50
16736;DHT22;17990;49.548;9.730;2023-08-31T07:53:55;30.90;78.50
16736;DHT22;17990;49.548;9.730;2023-08-31T07:56:22;30.60;79.00
16736;DHT22;17990;49.548;9.730;2023-08-31T07:58:49;30.90;78.60
16736;DHT22;17990;49.548;9.730;2023-08-31T08:01:17;31.10;77.30
16736;DHT22;17990;49.548;9.730;2023-08-31T08:03:44;30.20;79.00
16736;DHT22;17990;49.548;9.730;2023-08-31T08:06:10;30.60;77.80
16736;DHT22;17990;49.548;9.730;2023-08-31T08:08:37;30.10;78.70
16736;DHT22;17990;49.548;9.730;2023-08-31T08:11:04;30.10;79.90
16736;DHT22;17990;49.548;9.730;2023-08-31T08:13:31;29.90;80.30
16736;DHT22;17990;49.548;9.730;2023-08-31T08:15:58;29.20;79.70
16736;DHT22;17990;49.548;9.730;2023-08-31T08:18:26;28.40;81.50
16736;DHT22;17990;49.548;9.730;2023-08-31T08:20:53;28.10;82.00
16736;DHT22;17990;49.548;9.730;2023-08-31T08:23:20;28.40;82.00
16736;DHT22;17990;49.548;9.730;2023-08-31T08:25:47;27.90;83.60
16736;DHT22;17990;49.548;9.730;2023-08-31T08:28:14;27.10;86.10
16736;DHT22;17990;49.548;9.730;2023-08-31T08:30:40;26.40;87.40
16736;DHT22;17990;49.548;9.730;2023-08-31T08:33:08;25.60;89.00
16736;DHT22;17990;49.548;9.730;2023-08-31T08:35:37;25.70;88.90
16736;DHT22;17990;49.548;9.730;2023-08-31T08:38:04;25.80;89.90
16736;DHT22;17990;49.548;9.730;2023-08-31T08:40:31;26.00;88.80
16736;DHT22;17990;49.548;9.730;2023-08-31T08:43:00;25.80;88.20
16736;DHT22;17990;49.548;9.730;2023-08-31T08:45:30;24.60;90.30
16736;DHT22;17990;49.548;9.730;2023-08-31T08:47:57;23.70;92.40
16736;DHT22;17990;49.548;9.730;2023-08-31T08:50:24;22.30;92.30
16736;DHT22;17990;49.548;9.730;2023-08-31T08:52:55;21.20;92.90
16736;DHT22;17990;49.548;9.730;2023-08-31T08:55:22;20.60;93.50
16736;DHT22;17990;49.548;9.730;2023-08-31T08:57:49;20.30;94.80
16736;DHT22;17990;49.548;9.730;2023-08-31T09:00:16;20.00;95.00
16736;DHT22;17990;49.548;9.730;2023-08-31T09:02:42;19.90;94.40
16736;DHT22;17990;49.548;9.730;2023-08-31T09:05:10;19.90;94.20
16736;DHT22;17990;49.548;9.730;2023-08-31T09:07:38;19.70;94.80
16736;DHT22;17990;49.548;9.730;2023-08-31T09:10:33;19.90;95.30
16736;DHT22;17990;49.548;9.730;2023-08-31T09:13:00;20.70;94.10
16736;DHT22;17990;49.548;9.730;2023-08-31T09:15:36;21.40;93.30
16736;DHT22;17990;49.548;9.730;2023-08-31T09:18:03;21.70;92.90
16736;DHT22;17990;49.548;9.730;2023-08-31T09:20:30;21.90;93.00
16736;DHT22;17990;49.548;9.730;2023-08-31T09:22:58;22.10;92.60
16736;DHT22;17990;49.548;9.730;2023-08-31T09:25:24;22.10;92.60
16736;DHT22;17990;49.548;9.730;2023-08-31T09:27:53;21.90;92.80
16736;DHT22;17990;49.548;9.730;2023-08-31T09:30:19;21.50;93.20
16736;DHT22;17990;49.548;9.730;2023-08-31T09:32:52;21.00;93.50
16736;DHT22;17990;49.548;9.730;2023-08-31T09:35:19;20.80;94.40
16736;DHT22;17990;49.548;9.730;2023-08-31T09:37:54;20.50;94.00
16736;DHT22;17990;49.548;9.730;2023-08-31T09:40:22;20.00;93.70
16736;DHT22;17990;49.548;9.730;2023-08-31T09:42:50;19.80;94.10
16736;DHT22;17990;49.548;9.730;2023-08-31T09:45:22;19.80;94.40
16736;DHT22;17990;49.548;9.730;2023-08-31T09:47:52;19.60;94.40
16736;DHT22;17990;49.548;9.730;2023-08-31T09:50:19;19.70;94.40
16736;DHT22;17990;49.548;9.730;2023-08-31T09:52:47;19.80;94.00
16736;DHT22;17990;49.548;9.730;2023-08-31T09:55:15;19.70;94.10
16736;DHT22;17990;49.548;9.730;2023-08-31T09:57:44;19.80;94.50
16736;DHT22;17990;49.548;9.730;2023-08-31T10:00:12;20.10;94.30
16736;DHT22;17990;49.548;9.730;2023-08-31T10:02:42;20.20;94.30
16736;DHT22;17990;49.548;9.730;2023-08-31T10:05:09;20.30;94.20
16736;DHT22;17990;49.548;9.730;2023-08-31T10:07:37;20.20;94.90
16736;DHT22;17990;49.548;9.730;2023-08-31T10:10:05;20.20;95.50
16736;DHT22;17990;49.548;9.730;2023-08-31T10:12:32;20.50;95.30
16736;DHT22;17990;49.548;9.730;2023-08-31T10:15:00;20.70;94.80
16736;DHT22;17990;49.548;9.730;2023-08-31T10:17:28;20.90;94.40
16736;DHT22;17990;49.548;9.730;2023-08-31T10:19:57;21.00;94.40
16736;DHT22;17990;49.548;9.730;2023-08-31T10:22:23;21.30;93.80
16736;DHT22;17990;49.548;9.730;2023-08-31T10:24:57;21.40;93.50
16736;DHT22;17990;49.548;9.730;2023-08-31T10:27:24;21.40;92.90
16736;DHT22;17990;49.548;9.730;2023-08-31T10:29:51;21.50;92.90
16736;DHT22;17990;49.548;9.730;2023-08-31T10:32:18;21.40;92.90
16736;DHT22;17990;49.548;9.730;2023-08-31T10:35:04;21.30;93.60
16736;DHT22;17990;49.548;9.730;2023-08-31T10:37:31;21.10;94.00
16736;DHT22;17990;49.548;9.730;2023-08-31T10:40:07;20.70;94.30
16736;DHT22;17990;49.548;9.730;2023-08-31T10:42:41;20.50;95.10
16736;DHT22;17990;49.548;9.730;2023-08-31T10:45:09;20.50;95.20
16736;DHT22;17990;49.548;9.730;2023-08-31T10:47:37;21.00;94.90
16736;DHT22;17990;49.548;9.730;2023-08-31T10:50:19;21.30;94.10
16736;DHT22;17990;49.548;9.730;2023-08-31T10:52:46;21.60;93.80
16736;DHT22;17990;49.548;9.730;2023-08-31T10:55:13;21.80;93.00
16736;DHT22;17990;49.548;9.730;2023-08-31T10:57:41;21.90;92.80
16736;DHT22;17990;49.548;9.730;2023-08-31T11:00:09;22.30;93.20
16736;DHT22;17990;49.548;9.730;2023-08-31T11:02:37;22.60;92.80
16736;DHT22;17990;49.548;9.730;2023-08-31T11:05:09;22.70;92.60
16736;DHT22;17990;49.548;9.730;2023-08-31T11:07:39;22.60;91.80
16736;DHT22;17990;49.548;9.730;2023-08-31T11:10:08;22.50;92.00
16736;DHT22;17990;49.548;9.730;2023-08-31T11:12:35;22.50;92.10
16736;DHT22;17990;49.548;9.730;2023-08-31T11:15:02;23.10;91.80
16736;DHT22;17990;49.548;9.730;2023-08-31T11:17:30;23.30;91.30
16736;DHT22;17990;49.548;9.730;2023-08-31T11:19:57;23.80;91.20
16736;DHT22;17990;49.548;9.730;2023-08-31T11:22:24;23.70;91.50
16736;DHT22;17990;49.548;9.730;2023-08-31T11:24:53;23.70;91.20
16736;DHT22;17990;49.548;9.730;2023-08-31T11:27:20;23.90;91.30
16736;DHT22;17990;49.548;9.730;2023-08-31T11:29:47;24.40;90.20
16736;DHT22;17990;49.548;9.730;2023-08-31T11:32:14;24.60;90.00
16736;DHT22;17990;49.548;9.730;2023-08-31T11:34:41;24.70;89.70
16736;DHT22;17990;49.548;9.730;2023-08-31T11:37:09;24.80;88.60
16736;DHT22;17990;49.548;9.730;2023-08-31T11:39:37;24.90;88.80
16736;DHT22;17990;49.548;9.730;2023-08-31T11:42:07;24.60;87.80
16736;DHT22;17990;49.548;9.730;2023-08-31T11:44:34;24.50;88.00
16736;DHT22;17990;49.548;9.730;2023-08-31T11:47:01;24.40;88.00
16736;DHT22;17990;49.548;9.730;2023-08-31T11:49:28;24.70;88.10
16736;DHT22;17990;49.548;9.730;2023-08-31T11:51:55;24.80;87.30
16736;DHT22;17990;49.548;9.730;2023-08-31T11:54:25;24.90;86.80
16736;DHT22;17990;49.548;9.730;2023-08-31T11:56:52;24.80;86.50
16736;DHT22;17990;49.548;9.730;2023-08-31T11:59:20;24.60;87.50
16736;DHT22;17990;49.548;9.730;2023-08-31T12:01:49;24.60;87.90
16736;DHT22;17990;49.548;9.730;2023-08-31T12:04:20;24.50;86.50
16736;DHT22;17990;49.548;9.730;2023-08-31T12:06:50;24.40;87.70
16736;DHT22;17990;49.548;9.730;2023-08-31T12:09:17;24.30;86.60
16736;DHT22;17990;49.548;9.730;2023-08-31T12:11:49;23.90;85.20
16736;DHT22;17990;49.548;9.730;2023-08-31T12:14:22;23.60;85.90
16736;DHT22;17990;49.548;9.730;2023-08-31T12:16:49;23.60;87.70
16736;DHT22;17990;49.548;9.730;2023-08-31T12:19:17;23.60;86.90
16736;DHT22;17990;49.548;9.730;2023-08-31T12:21:45;23.40;86.20
16736;DHT22;17990;49.548;9.730;2023-08-31T12:24:12;23.40;87.00
16736;DHT22;17990;49.548;9.730;2023-08-31T12:26:40;23.20;85.90
16736;DHT22;17990;49.548;9.730;2023-08-31T12:29:06;23.10;88.00
16736;DHT22;17990;49.548;9.730;2023-08-31T12:31:35;23.20;87.80
16736;DHT22;17990;49.548;9.730;2023-08-31T12:34:02;23.30;88.10
16736;DHT22;17990;49.548;9.730;2023-08-31T12:36:31;23.40;87.70
16736;DHT22;17990;49.548;9.730;2023-08-31T12:38:58;23.40;88.00
16736;DHT22;17990;49.548;9.730;2023-08-31T12:41:27;23.50;88.40
16736;DHT22;17990;49.548;9.730;2023-08-31T12:43:53;23.40;86.60
16736;DHT22;17990;49.548;9.730;2023-08-31T12:46:20;23.30;88.10
16736;DHT22;17990;49.548;9.730;2023-08-31T12:48:48;23.20;88.60
16736;DHT22;17990;49.548;9.730;2023-08-31T12:51:15;23.20;88.10
16736;DHT22;17990;49.548;9.730;2023-08-31T12:53:42;23.20;87.50
16736;DHT22;17990;49.548;9.730;2023-08-31T12:56:08;23.20;88.10
16736;DHT22;17990;49.548;9.730;2023-08-31T12:58:35;23.10;88.60
16736;DHT22;17990;49.548;9.730;2023-08-31T13:01:02;22.90;88.20
16736;DHT22;17990;49.548;9.730;2023-08-31T13:03:29;22.80;88.40
16736;DHT22;17990;49.548;9.730;2023-08-31T13:05:57;22.80;88.60
16736;DHT22;17990;49.548;9.730;2023-08-31T13:08:23;22.90;89.60
16736;DHT22;17990;49.548;9.730;2023-08-31T13:10:54;22.70;89.40
16736;DHT22;17990;49.548;9.730;2023-08-31T13:15:48;22.30;90.60
16736;DHT22;17990;49.548;9.730;2023-08-31T13:18:14;22.10;91.40
16736;DHT22;17990;49.548;9.730;2023-08-31T13:20:49;22.00;91.30
16736;DHT22;17990;49.548;9.730;2023-08-31T13:23:17;21.70;91.30
16736;DHT22;17990;49.548;9.730;2023-08-31T13:25:44;21.50;91.40
16736;DHT22;17990;49.548;9.730;2023-08-31T13:28:11;21.30;92.10
16736;DHT22;17990;49.548;9.730;2023-08-31T13:30:38;21.20;92.50
16736;DHT22;17990;49.548;9.730;2023-08-31T13:33:05;21.20;92.40
16736;DHT22;17990;49.548;9.730;2023-08-31T13:35:33;21.30;92.60
16736;DHT22;17990;49.548;9.730;2023-08-31T13:37:59;21.50;92.30
16736;DHT22;17990;49.548;9.730;2023-08-31T13:40:28;21.90;92.00
16736;DHT22;17990;49.548;9.730;2023-08-31T13:42:56;22.10;91.60
16736;DHT22;17990;49.548;9.730;2023-08-31T13:45:26;22.20;91.70
16736;DHT22;17990;49.548;9.730;2023-08-31T13:47:52;22.40;91.50
16736;DHT22;17990;49.548;9.730;2023-08-31T13:50:19;22.40;91.20
16736;DHT22;17990;49.548;9.730;2023-08-31T13:52:46;22.50;91.20
16736;DHT22;17990;49.548;9.730;2023-08-31T13:55:13;22.40;90.90
16736;DHT22;17990;49.548;9.730;2023-08-31T13:57:42;22.40;91.30
16736;DHT22;17990;49.548;9.730;2023-08-31T14:00:09;22.50;91.50
16736;DHT22;17990;49.548;9.730;2023-08-31T14:02:36;22.40;91.20
16736;DHT22;17990;49.548;9.730;2023-08-31T14:05:04;22.10;91.30
16736;DHT22;17990;49.548;9.730;2023-08-31T14:07:34;21.90;91.60
16736;DHT22;17990;49.548;9.730;2023-08-31T14:10:01;22.00;91.80
16736;DHT22;17990;49.548;9.730;2023-08-31T14:12:28;22.00;91.40
16736;DHT22;17990;49.548;9.730;2023-08-31T14:14:57;22.10;91.00
16736;DHT22;17990;49.548;9.730;2023-08-31T14:17:24;22.20;91.20
16736;DHT22;17990;49.548;9.730;2023-08-31T14:19:50;22.40;91.40
16736;DHT22;17990;49.548;9.730;2023-08-31T14:22:17;22.50;90.90
16736;DHT22;17990;49.548;9.730;2023-08-31T14:24:44;22.50;90.70
16736;DHT22;17990;49.548;9.730;2023-08-31T14:27:11;22.30;90.90
16736;DHT22;17990;49.548;9.730;2023-08-31T14:29:38;22.10;90.80
16736;DHT22;17990;49.548;9.730;2023-08-31T14:32:06;21.80;90.90
16736;DHT22;17990;49.548;9.730;2023-08-31T14:34:32;21.80;91.00
16736;DHT22;17990;49.548;9.730;2023-08-31T14:36:59;21.80;91.10
16736;DHT22;17990;49.548;9.730;2023-08-31T14:39:26;21.80;91.20
16736;DHT22;17990;49.548;9.730;2023-08-31T14:41:55;21.70;91.30
16736;DHT22;17990;49.548;9.730;2023-08-31T14:44:22;21.60;91.30
16736;DHT22;17990;49.548;9.730;2023-08-31T14:46:49;21.60;92.00
16736;DHT22;17990;49.548;9.730;2023-08-31T14:49:17;21.60;91.80
16736;DHT22;17990;49.548;9.730;2023-08-31T14:51:44;21.60;91.90
16736;DHT22;17990;49.548;9.730;2023-08-31T14:54:11;22.10;91.70
16736;DHT22;17990;49.548;9.730;2023-08-31T14:56:37;22.50;91.40
16736;DHT22;17990;49.548;9.730;2023-08-31T14:59:04;22.80;91.10
16736;DHT22;17990;49.548;9.730;2023-08-31T15:01:31;22.50;91.40
16736;DHT22;17990;49.548;9.730;2023-08-31T15:03:58;22.20;92.20
16736;DHT22;17990;49.548;9.730;2023-08-31T15:06:31;21.80;92.40
16736;DHT22;17990;49.548;9.730;2023-08-31T15:08:59;21.70;92.70
16736;DHT22;17990;49.548;9.730;2023-08-31T15:11:26;21.70;93.10
16736;DHT22;17990;49.548;9.730;2023-08-31T15:13:53;21.70;92.60
16736;DHT22;17990;49.548;9.730;2023-08-31T15:16:20;21.80;92.60
16736;DHT22;17990;49.548;9.730;2023-08-31T15:18:47;21.80;92.70
16736;DHT22;17990;49.548;9.730;2023-08-31T15:21:14;21.70;93.00
16736;DHT22;17990;49.548;9.730;2023-08-31T15:23:42;21.60;92.90
16736;DHT22;17990;49.548;9.730;2023-08-31T15:26:12;21.60;93.20
16736;DHT22;17990;49.548;9.730;2023-08-31T15:28:40;21.60;92.90
16736;DHT22;17990;49.548;9.730;2023-08-31T15:31:07;21.60;92.80
16736;DHT22;17990;49.548;9.730;2023-08-31T15:33:41;21.60;92.90
16736;DHT22;17990;49.548;9.730;2023-08-31T15:36:11;21.60;92.70